ADDS METAR Data INFO
IDs: Format: Raw Decoded Include TAF

Data at: 2215 UTC 24 Jun 2018

KLLQ 242153Z AUTO 16005KT 10SM SCT042 32/24 A2993 RMK AO2 SLP132 T03220239
KLLQ 242053Z AUTO 17008KT 10SM CLR 32/23 A2993 RMK AO2 SLP130 T03220233 56014
KLLQ 241953Z AUTO 17006G16KT 10SM SCT034 BKN042 32/24 A2993 RMK AO2 SLP131 T03170239
KLLQ 241853Z AUTO 17008KT 10SM CLR 31/23 A2994 RMK AO2 SLP135 T03110233
KLLQ 241753Z AUTO 19006KT 10SM FEW029 31/24 A2997 RMK AO2 SLP145 T03110239 10311 20250 58019
KLLQ 241653Z AUTO VRB04KT 10SM SCT028 SCT034 29/24 A2999 RMK AO2 SLP151 T02940239
KLLQ 241553Z AUTO 27005KT 10SM SCT022 BKN031 OVC055 28/24 A3003 RMK AO2 SLP164 T02830239
KLLQ 241521Z AUTO 24009KT 10SM SCT022 SCT027 SCT034 28/24 A3001 RMK AO2 T02830239
KLLQ 241453Z AUTO 25007KT 10SM BKN021 BKN027 28/24 A2998 RMK AO2 SLP150 T02830239 51018
KLLQ 241448Z AUTO 21007KT 10SM SCT020 BKN025 28/24 A2998 RMK AO2
KLLQ 241439Z AUTO 22008KT 10SM SCT020 SCT027 28/23 A2998 RMK AO2 T02830233
KLLQ 241353Z AUTO 20009KT 10SM BKN015 BKN021 28/23 A2996 RMK AO2 SLP143 T02780233
KLLQ 241253Z AUTO 16007KT 10SM FEW009 SCT023 26/24 A2993 RMK AO2 SLP132 T02610239
KLLQ 241153Z AUTO 16004KT 10SM FEW008 BKN020 25/24 A2992 RMK AO2 SLP130 70001 T02500239 10272 20250 51012
KLLQ 241148Z AUTO 16004KT 10SM FEW008 BKN020 25/24 A2992 RMK AO2
KLLQ 241132Z AUTO 18004KT 10SM SCT008 25/24 A2992 RMK AO2 T02500239
KLLQ 241053Z AUTO 20005KT 10SM CLR 25/24 A2991 RMK AO2 SLP123 T02500239
KLLQ 240953Z AUTO 20009KT 10SM CLR 26/24 A2989 RMK AO2 SLP117 T02560239
KLLQ 240853Z AUTO 21008KT 10SM SCT055 26/24 A2989 RMK AO2 SLP118 T02610239 50011
KLLQ 240753Z AUTO 21006KT 10SM OVC049 27/24 A2990 RMK AO2 SLP119 T02670239
KLLQ 240653Z AUTO 22008G15KT 10SM CLR 27/24 A2989 RMK AO2 SLP116 T02720239
KLLQ 240553Z AUTO 19004KT 10SM CLR 27/24 A2986 RMK AO2 SLP107 T02670239 10328 20261 403390233 51008
KLLQ 240453Z AUTO 17005KT 10SM CLR 27/24 A2985 RMK AO2 SLP106 T02670239
KLLQ 240353Z AUTO 18004KT 10SM CLR 27/25 A2985 RMK AO2 SLP104 T02720250
KLLQ 240253Z AUTO 17004KT 10SM CLR 28/26 A2984 RMK AO2 SLP100 T02780256 53010
KLLQ 240153Z AUTO 16003KT 10SM FEW047 29/26 A2982 RMK AO2 SLP095 T02890261
KLLQ 240053Z AUTO 00000KT 10SM BKN047 BKN055 31/26 A2982 RMK AO2 SLP094 T03110256
KLLQ 232353Z AUTO 19004KT 10SM FEW042 33/25 A2981 RMK AO2 SLP089 T03280250 10339 20317 55003
KLLQ 232253Z AUTO 20007KT 10SM FEW041 33/25 A2980 RMK AO2 SLP087 T03330250
KLLQ 232153Z AUTO 21009KT 10SM FEW049 33/25 A2981 RMK AO2 SLP090 T03330250
KLLQ 232053Z AUTO 22008KT 10SM SCT041 BKN050 33/25 A2982 RMK AO2 SLP092 T03280250 55010
KLLQ 231953Z AUTO 21011KT 10SM FEW031 33/26 A2980 RMK AO2 SLP087 T03330256
KLLQ 231853Z AUTO 22013G21KT 10SM FEW028 33/26 A2980 RMK AO2 SLP086 T03280256
KLLQ 231753Z AUTO 24008KT 10SM SCT029 32/26 A2985 RMK AO2 SLP104 60001 T03220256 10322 20250 58016
KLLQ 231653Z AUTO 24009KT 10SM CLR 31/25 A2987 RMK AO2 SLP112 T03060250
KLLQ 231553Z AUTO 23011KT 10SM CLR 29/23 A2989 RMK AO2 SLP117 T02940228
KLLQ 231453Z AUTO 27005KT 10SM FEW039 28/22 A2990 RMK AO2 SLP120 60001 T02830222 53016
KLLQ 231353Z AUTO 25003KT 10SM CLR 27/23 A2988 RMK AO2 SLP113 T02720233
KLLQ 231253Z AUTO 00000KT 10SM FEW085 26/23 A2985 RMK AO2 RAB08E31 SLP106 P0001 T02560233
KLLQ 231224Z AUTO 00000KT 9SM -RA SCT008 BKN060 OVC090 25/23 A2985 RMK AO2 RAB08 P0001 T02500233
KLLQ 231217Z AUTO 33005KT 9SM -RA SCT006 BKN017 OVC085 26/24 A2985 RMK AO2 RAB08 P0001 T02560239
KLLQ 231206Z AUTO 31009KT 6SM BR BKN006 BKN017 OVC040 26/25 A2986 RMK AO2 LTG DSNT NE T02610250
KLLQ 231153Z AUTO 26006KT 6SM BR SCT006 BKN017 BKN110 26/25 A2985 RMK AO2 LTG DSNT N AND NE SLP104 70328 T02610250 10261 20239 51008
KLLQ 231148Z AUTO VRB06KT 6SM BR SCT006 BKN017 BKN110 26/25 A2985 RMK AO2 LTG DSNT NW-NE
KLLQ 231053Z AUTO 23008KT 7SM OVC006 26/25 A2984 RMK AO2 SLP101 T02560250
KLLQ 231037Z AUTO 23008KT 8SM OVC006 26/25 A2984 RMK AO2 T02560250